Accueil
METAR-TAF:

METAR-TAF

Aéroports :

Scammon Bay, Alaska, États-Unis

latitude: 61-50-43N, longitude: 165-34-17W, altitude: 4 m

Observation

Le bulletin a été fait il y a 10 minutes, à 00:16 UTC
Vent 7 kt de ouest
Température -12°C
Humidité 92%
Pression 1013 hPa
Visibilité: 16.1 km
Nuages épars à une hauteur de 1700 ft
Ciel couvert à une hauteur de 6500 ft

METAR: PACM 230016Z AUTO 27007KT 10SM SCT017 OVC065 M12/M13 A2990 RMK AO2 FZRANO

Heure: 15:26 (00:26 UTC)


TAF: absent

Observations et prévisions météorologiques de plus de 4000 aéroports (messages METAR et TAF).

Les stations disponibles sont représentées par des disques jaunes et rouges sur la carte.

Passer la souris dessus pour voir le nom de la station.

Cliquer dessus pour voir les observations et prévisions météorologiques.

Pour changer de carte: cliquez sur les boutons verts avec une croix noire pour zoomer, sur le bouton vert avec un tiret pour effectuer un zoom arrière, ou sur les flèches vertes pour les cartes adjacentes.


METAR-TAF: